createdAt,value
2023-03-08T00:01:35.369Z,99118.06
2023-03-08T00:04:05.442Z,99117.00
2023-03-08T00:06:34.800Z,99109.47
2023-03-08T00:09:03.825Z,99117.31
2023-03-08T00:11:32.550Z,99112.38
2023-03-08T00:14:01.657Z,99126.69
2023-03-08T00:16:30.926Z,99129.06
2023-03-08T00:18:59.851Z,99128.75
2023-03-08T00:21:29.506Z,99120.28
2023-03-08T00:24:00.094Z,99125.06
2023-03-08T00:26:28.343Z,99118.47
2023-03-08T00:28:57.146Z,99117.69
2023-03-08T00:31:25.450Z,99116.44
2023-03-08T00:33:55.592Z,99116.25
2023-03-08T00:36:24.077Z,99111.50
2023-03-08T00:38:54.047Z,99112.75
2023-03-08T00:41:22.800Z,99115.19
2023-03-08T00:43:52.468Z,99104.91
2023-03-08T00:46:22.175Z,99115.34
2023-03-08T00:48:50.695Z,99115.19
2023-03-08T00:51:21.674Z,99104.34
2023-03-08T00:53:50.998Z,99107.50
2023-03-08T00:56:20.734Z,99111.50
2023-03-08T00:58:49.146Z,99094.66
2023-03-08T01:01:21.621Z,99095.56
2023-03-08T01:03:51.382Z,99091.34
2023-03-08T01:06:19.921Z,99092.84
2023-03-08T01:08:48.414Z,99088.63
2023-03-08T01:11:24.665Z,99085.34
2023-03-08T01:13:54.974Z,99090.66
2023-03-08T01:16:25.623Z,99082.00
2023-03-08T01:18:55.215Z,99090.66
2023-03-08T01:21:23.665Z,99090.66
2023-03-08T01:23:53.088Z,99077.63
2023-03-08T01:26:25.350Z,99095.03
2023-03-08T01:28:58.124Z,99093.59
2023-03-08T01:31:31.042Z,99084.06
2023-03-08T01:34:02.380Z,99080.53
2023-03-08T01:36:31.055Z,99068.59
2023-03-08T01:39:02.361Z,99067.16
2023-03-08T01:41:33.187Z,99065.84
2023-03-08T01:44:02.559Z,99051.41
2023-03-08T01:46:32.365Z,99058.03
2023-03-08T01:49:12.420Z,99058.41
2023-03-08T01:51:44.241Z,99052.00
2023-03-08T01:54:17.320Z,99057.06
2023-03-08T01:56:50.308Z,99057.28
2023-03-08T01:59:25.429Z,99054.72
2023-03-08T02:01:54.289Z,99052.88
2023-03-08T02:04:23.154Z,99048.31
2023-03-08T02:06:51.839Z,99045.59
2023-03-08T02:09:24.725Z,99046.13
2023-03-08T02:12:00.233Z,99040.84
2023-03-08T02:14:31.059Z,99039.38
2023-03-08T02:17:00.482Z,99031.88
2023-03-08T02:19:35.323Z,99025.09
2023-03-08T02:22:10.190Z,99029.31
2023-03-08T02:24:39.761Z,99018.88
2023-03-08T02:27:14.704Z,99015.59
2023-03-08T02:29:43.381Z,99014.13
2023-03-08T02:32:11.877Z,99009.19
2023-03-08T02:34:40.354Z,99004.44
2023-03-08T02:37:08.933Z,99008.44
2023-03-08T02:39:37.184Z,98996.94
2023-03-08T02:42:07.477Z,98992.53
2023-03-08T02:44:36.984Z,98992.88
2023-03-08T02:47:05.393Z,98990.34
2023-03-08T02:49:33.694Z,98987.06
2023-03-08T02:52:02.236Z,98981.91
2023-03-08T02:54:32.329Z,98981.38
2023-03-08T02:57:02.560Z,98982.47
2023-03-08T02:59:32.930Z,98981.94
2023-03-08T03:02:00.990Z,98973.13
2023-03-08T03:04:31.146Z,98969.88
2023-03-08T03:07:00.504Z,98981.03
2023-03-08T03:09:29.592Z,98975.72
2023-03-08T03:11:58.335Z,98970.41
2023-03-08T03:14:29.191Z,98967.84
2023-03-08T03:17:00.289Z,98967.47
2023-03-08T03:19:28.677Z,98955.03
2023-03-08T03:21:57.291Z,98957.25
2023-03-08T03:24:25.600Z,98950.84
2023-03-08T03:26:58.022Z,98957.59
2023-03-08T03:29:31.439Z,98952.31
2023-03-08T03:32:10.942Z,98947.34
2023-03-08T03:34:39.879Z,98946.44
2023-03-08T03:37:08.809Z,98949.94
2023-03-08T03:39:40.416Z,98946.81
2023-03-08T03:42:11.813Z,98944.41
2023-03-08T03:44:46.448Z,98944.59
2023-03-08T03:47:22.304Z,98945.72
2023-03-08T03:49:55.223Z,98945.91
2023-03-08T03:52:25.245Z,98938.41
2023-03-08T03:55:02.481Z,98926.69
2023-03-08T03:57:31.538Z,98947.16
2023-03-08T04:00:00.240Z,98951.38
2023-03-08T04:02:31.392Z,98959.59
2023-03-08T04:05:01.384Z,98949.72
2023-03-08T04:07:33.973Z,98943.69
2023-03-08T04:10:03.171Z,98938.41
2023-03-08T04:12:33.349Z,98937.09
2023-03-08T04:15:03.372Z,98929.06
2023-03-08T04:17:36.362Z,98923.72
2023-03-08T04:20:08.184Z,98920.44
2023-03-08T04:22:41.746Z,98919.53
2023-03-08T04:25:19.518Z,98923.72
2023-03-08T04:27:55.331Z,98925.72
2023-03-08T04:30:23.639Z,98920.06
2023-03-08T04:32:56.966Z,98931.94
2023-03-08T04:35:31.710Z,98919.16
2023-03-08T04:37:59.951Z,98917.50
2023-03-08T04:40:29.948Z,98913.50
2023-03-08T04:43:01.409Z,98914.59
2023-03-08T04:45:38.153Z,98908.75
2023-03-08T04:48:13.192Z,98902.88
2023-03-08T04:50:41.750Z,98901.97
2023-03-08T04:53:11.503Z,98896.66
2023-03-08T04:55:40.850Z,98894.31
2023-03-08T04:58:09.945Z,98892.81
2023-03-08T05:00:39.207Z,98890.81
2023-03-08T05:03:08.771Z,98900.13
2023-03-08T05:05:39.531Z,98897.06
2023-03-08T05:08:09.464Z,98882.59
2023-03-08T05:10:39.097Z,98877.47
2023-03-08T05:13:09.114Z,98872.34
2023-03-08T05:15:39.090Z,98873.25
2023-03-08T05:18:07.336Z,98867.78
2023-03-08T05:20:35.665Z,98865.41
2023-03-08T05:23:08.724Z,98864.31
2023-03-08T05:25:44.910Z,98875.84
2023-03-08T05:28:16.200Z,98869.97
2023-03-08T05:30:48.016Z,98878.78
2023-03-08T05:33:18.811Z,98885.00
2023-03-08T05:35:55.221Z,98876.03
2023-03-08T05:38:26.866Z,98870.72
2023-03-08T05:40:56.236Z,98859.00
2023-03-08T05:43:26.365Z,98863.41
2023-03-08T05:45:59.130Z,98860.47
2023-03-08T05:48:31.354Z,98849.69
2023-03-08T05:50:59.602Z,98848.97
2023-03-08T05:53:29.888Z,98849.53
2023-03-08T05:55:57.995Z,98844.97
2023-03-08T05:58:26.350Z,98839.81
2023-03-08T06:00:54.444Z,98838.00
2023-03-08T06:03:22.982Z,98828.50
2023-03-08T06:05:51.354Z,98836.53
2023-03-08T06:08:20.956Z,98831.59
2023-03-08T06:10:52.494Z,98823.56
2023-03-08T06:13:22.863Z,98818.81
2023-03-08T06:15:54.770Z,98806.91
2023-03-08T06:18:23.263Z,98808.94
2023-03-08T06:20:59.391Z,98799.41
2023-03-08T06:23:28.208Z,98791.00
2023-03-08T06:25:58.070Z,98791.38
2023-03-08T06:28:27.529Z,98795.59
2023-03-08T06:30:56.477Z,98805.47
2023-03-08T06:33:26.084Z,98788.44
2023-03-08T06:35:58.285Z,98795.78
2023-03-08T06:38:33.354Z,98798.31
2023-03-08T06:41:06.159Z,98794.28
2023-03-08T06:43:35.734Z,98791.38
2023-03-08T06:46:05.231Z,98792.84
2023-03-08T06:48:34.610Z,98781.69
2023-03-08T06:51:03.806Z,98775.81
2023-03-08T06:53:31.970Z,98772.91
2023-03-08T06:56:04.506Z,98762.84
2023-03-08T06:58:34.774Z,98752.41
2023-03-08T07:01:04.388Z,98746.72
2023-03-08T07:03:32.552Z,98764.09
2023-03-08T07:06:01.228Z,98752.56
2023-03-08T07:08:29.739Z,98747.47
2023-03-08T07:10:59.409Z,98746.72
2023-03-08T07:13:29.855Z,98751.47
2023-03-08T07:15:58.415Z,98743.41
2023-03-08T07:18:27.679Z,98740.47
2023-03-08T07:20:56.864Z,98738.28
2023-03-08T07:23:25.684Z,98742.47
2023-03-08T07:25:53.838Z,98737.34
2023-03-08T07:28:23.242Z,98733.13
2023-03-08T07:30:53.782Z,98734.44
2023-03-08T07:33:23.307Z,98728.22
2023-03-08T07:35:51.451Z,98718.38
2023-03-08T07:38:20.417Z,98711.63
2023-03-08T07:40:55.161Z,98717.91
2023-03-08T07:43:23.971Z,98709.88
2023-03-08T07:46:08.073Z,98706.78
2023-03-08T07:48:36.607Z,98694.91
2023-03-08T07:51:09.384Z,98690.34
2023-03-08T07:53:38.292Z,98699.69
2023-03-08T07:56:07.196Z,98688.72
2023-03-08T07:58:37.691Z,98678.84
2023-03-08T08:01:12.612Z,98680.47
2023-03-08T08:03:53.126Z,98666.44
2023-03-08T08:06:37.587Z,98660.94
2023-03-08T08:09:25.784Z,98657.63
2023-03-08T08:12:13.447Z,98656.19
2023-03-08T08:15:08.505Z,98643.94
2023-03-08T08:17:37.967Z,98640.50
2023-03-08T08:20:09.351Z,98635.34
2023-03-08T08:22:37.764Z,98631.88
2023-03-08T08:25:06.366Z,98619.09
2023-03-08T08:27:35.077Z,98621.44
2023-03-08T08:30:04.551Z,98619.06
2023-03-08T08:32:33.950Z,98594.66
2023-03-08T08:35:04.562Z,98590.59
2023-03-08T08:37:33.038Z,98585.69
2023-03-08T08:40:01.614Z,98577.47
2023-03-08T08:42:37.228Z,98568.16
2023-03-08T08:45:05.885Z,98565.09
2023-03-08T08:47:33.895Z,98555.06
2023-03-08T08:50:03.804Z,98557.06
2023-03-08T08:52:32.820Z,98543.41
2023-03-08T08:55:03.334Z,98545.94
2023-03-08T08:57:33.453Z,98536.28
2023-03-08T09:00:01.735Z,98540.13
2023-03-08T09:03:07.948Z,98523.16
2023-03-08T09:06:13.725Z,98525.16
2023-03-08T09:08:42.127Z,98511.47
2023-03-08T09:11:12.463Z,98518.25
2023-03-08T09:14:02.750Z,98518.25
2023-03-08T09:16:42.376Z,98509.13
2023-03-08T09:22:28.600Z,98500.00
2023-03-08T09:25:06.823Z,98503.97
2023-03-08T09:27:34.895Z,98505.44
2023-03-08T09:30:02.915Z,98506.53
2023-03-08T09:32:33.744Z,98496.69
2023-03-08T09:35:11.302Z,98501.22
2023-03-08T09:37:40.867Z,98498.28
2023-03-08T09:40:10.811Z,98488.81
2023-03-08T09:42:39.274Z,98469.47
2023-03-08T09:45:16.213Z,98458.53
2023-03-08T09:47:47.344Z,98465.63
2023-03-08T09:50:23.594Z,98452.09
2023-03-08T09:53:00.373Z,98452.75
2023-03-08T09:55:30.964Z,98463.13
2023-03-08T09:58:00.943Z,98444.50
2023-03-08T10:17:04.155Z,98418.91
2023-03-08T10:25:16.793Z,98398.31
2023-03-08T10:27:51.546Z,98395.81
2023-03-08T10:30:20.575Z,98397.25
2023-03-08T10:32:51.010Z,98387.75
2023-03-08T10:35:20.080Z,98395.38
2023-03-08T10:37:56.996Z,98384.09
2023-03-08T10:40:25.250Z,98399.00
2023-03-08T10:42:57.949Z,98393.50
2023-03-08T10:45:28.620Z,98394.47
2023-03-08T10:47:58.083Z,98381.56
2023-03-08T10:50:27.985Z,98384.34
2023-03-08T10:52:58.439Z,98377.31
2023-03-08T10:55:31.658Z,98367.22
2023-03-08T10:58:02.661Z,98361.78
2023-03-08T11:00:35.663Z,98362.13
2023-03-08T11:03:08.679Z,98359.47
2023-03-08T11:05:37.450Z,98356.25
2023-03-08T11:08:05.776Z,98346.72
2023-03-08T11:10:33.998Z,98349.28
2023-03-08T11:13:07.300Z,98346.16
2023-03-08T11:15:38.324Z,98340.88
2023-03-08T11:18:16.638Z,98334.19
2023-03-08T11:20:48.098Z,98334.09
2023-03-08T11:23:22.453Z,98340.41
2023-03-08T11:25:56.450Z,98328.59
2023-03-08T11:28:37.613Z,98324.25
2023-03-08T11:31:15.127Z,98324.25
2023-03-08T11:34:03.639Z,98327.66
2023-03-08T11:36:36.010Z,98322.72
2023-03-08T11:39:12.554Z,98322.16
2023-03-08T11:41:45.030Z,98323.59
2023-03-08T11:44:31.207Z,98324.91
2023-03-08T11:47:16.751Z,98304.22
2023-03-08T11:49:52.300Z,98305.84
2023-03-08T11:52:27.061Z,98305.34
2023-03-08T11:55:08.758Z,98295.06
2023-03-08T11:57:38.756Z,98299.19
2023-03-08T12:00:16.470Z,98307.59
2023-03-08T12:02:48.201Z,98297.41
2023-03-08T12:05:23.581Z,98295.13
2023-03-08T12:07:55.619Z,98304.13
2023-03-08T12:10:25.622Z,98304.06
2023-03-08T12:13:05.912Z,98310.50
2023-03-08T12:15:39.081Z,98317.00
2023-03-08T12:18:09.117Z,98301.44
2023-03-08T12:20:40.270Z,98302.50
2023-03-08T12:23:14.220Z,98302.09
2023-03-08T12:25:45.948Z,98302.81
2023-03-08T12:28:34.221Z,98300.81
2023-03-08T12:31:24.959Z,98293.47
2023-03-08T12:33:57.053Z,98298.25
2023-03-08T12:36:37.220Z,98294.06
2023-03-08T12:39:10.045Z,98300.44
2023-03-08T12:41:38.637Z,98276.16
2023-03-08T12:44:08.288Z,98286.75
2023-03-08T12:47:03.629Z,98279.25
2023-03-08T12:49:34.013Z,98282.28
2023-03-08T12:52:04.970Z,98275.53
2023-03-08T12:54:34.911Z,98273.22
2023-03-08T12:57:04.408Z,98275.66
2023-03-08T12:59:37.898Z,98276.84
2023-03-08T13:02:26.140Z,98267.44
2023-03-08T13:05:03.264Z,98272.66
2023-03-08T13:07:35.153Z,98276.47
2023-03-08T13:10:05.782Z,98277.47
2023-03-08T13:13:37.053Z,98259.53
2023-03-08T13:16:20.436Z,98259.50
2023-03-08T13:21:35.628Z,98262.09
2023-03-08T13:24:12.837Z,98263.06
2023-03-08T13:26:51.030Z,98257.13
2023-03-08T13:29:21.099Z,98253.19
2023-03-08T13:31:49.599Z,98256.50
2023-03-08T13:34:37.092Z,98251.69
2023-03-08T13:37:05.874Z,98267.31
2023-03-08T13:39:33.987Z,98264.16
2023-03-08T13:42:08.757Z,98253.41
2023-03-08T13:44:37.113Z,98261.81
2023-03-08T13:47:12.344Z,98262.22
2023-03-08T13:49:45.518Z,98262.09
2023-03-08T13:52:17.125Z,98269.31
2023-03-08T13:54:47.116Z,98273.41
2023-03-08T13:57:21.056Z,98273.75
2023-03-08T13:59:50.065Z,98265.91
2023-03-08T14:02:21.875Z,98261.41
2023-03-08T14:04:51.764Z,98257.94
2023-03-08T14:07:22.982Z,98252.09
2023-03-08T14:09:51.344Z,98251.53
2023-03-08T14:12:20.501Z,98247.00
2023-03-08T14:14:51.321Z,98249.63
2023-03-08T14:17:21.060Z,98254.25
2023-03-08T14:19:56.695Z,98256.00
2023-03-08T14:22:38.195Z,98258.56
2023-03-08T14:25:22.023Z,98256.41
2023-03-08T14:27:50.247Z,98246.38
2023-03-08T14:30:19.848Z,98256.31
2023-03-08T14:33:00.867Z,98247.59
2023-03-08T14:35:32.076Z,98246.59
2023-03-08T14:38:00.239Z,98247.75
2023-03-08T14:40:30.615Z,98247.03
2023-03-08T14:46:30.184Z,98235.28
2023-03-08T14:49:02.665Z,98229.91
2023-03-08T14:51:40.366Z,98236.56
2023-03-08T14:54:21.357Z,98227.69
2023-03-08T14:56:49.770Z,98230.91
2023-03-08T14:59:27.538Z,98238.72
2023-03-08T15:01:56.731Z,98222.31
2023-03-08T15:04:26.115Z,98241.75
2023-03-08T15:07:07.451Z,98213.97
2023-03-08T15:09:35.841Z,98205.63
2023-03-08T15:12:04.485Z,98215.03
2023-03-08T15:14:32.564Z,98201.63
2023-03-08T15:17:30.787Z,98201.41
2023-03-08T15:19:59.599Z,98197.00
2023-03-08T15:22:30.567Z,98195.03
2023-03-08T15:25:02.940Z,98188.31
2023-03-08T15:27:30.900Z,98191.91
2023-03-08T15:29:59.380Z,98198.91
2023-03-08T15:32:28.951Z,98191.25
2023-03-08T15:34:57.338Z,98188.72
2023-03-08T15:37:25.669Z,98187.66
2023-03-08T15:39:55.312Z,98189.69
2023-03-08T15:42:24.891Z,98185.38
2023-03-08T15:44:53.405Z,98186.56
2023-03-08T15:47:22.357Z,98179.97
2023-03-08T15:49:51.313Z,98172.66
2023-03-08T15:52:19.622Z,98177.69
2023-03-08T15:54:49.655Z,98181.66
2023-03-08T15:57:19.138Z,98192.25
2023-03-08T15:59:47.451Z,98183.00
2023-03-08T16:02:25.171Z,98180.13
2023-03-08T16:04:57.900Z,98186.59
2023-03-08T16:07:26.078Z,98185.22
2023-03-08T16:10:05.826Z,98185.06
2023-03-08T16:12:35.534Z,98174.25
2023-03-08T16:15:25.288Z,98171.13
2023-03-08T16:18:23.582Z,98161.38
2023-03-08T16:21:23.555Z,98170.66
2023-03-08T16:24:11.395Z,98181.09
2023-03-08T16:26:39.352Z,98188.66
2023-03-08T16:29:09.016Z,98186.16
2023-03-08T16:31:37.056Z,98195.03
2023-03-08T17:08:00.004Z,98180.53
2023-03-08T17:10:28.193Z,98173.78
2023-03-08T17:12:56.353Z,98176.72
2023-03-08T17:15:24.632Z,98186.19
2023-03-08T17:17:53.278Z,98189.94
2023-03-08T17:20:21.569Z,98179.69
2023-03-08T17:22:49.662Z,98187.75
2023-03-08T17:25:19.758Z,98181.97
2023-03-08T17:27:50.335Z,98187.47
2023-03-08T17:30:18.668Z,98192.75
2023-03-08T17:32:46.711Z,98188.44
2023-03-08T17:35:14.793Z,98195.44
2023-03-08T17:37:43.295Z,98186.16
2023-03-08T17:40:12.185Z,98175.97
2023-03-08T17:42:42.048Z,98186.63
2023-03-08T17:45:11.228Z,98185.44
2023-03-08T17:47:39.886Z,98192.75
2023-03-08T17:50:10.615Z,98194.13
2023-03-08T17:52:39.049Z,98191.97
2023-03-08T17:55:07.421Z,98197.09
2023-03-08T17:57:35.820Z,98201.31
2023-03-08T18:00:06.729Z,98206.47
2023-03-08T18:02:35.368Z,98201.75
2023-03-08T18:05:03.872Z,98204.25
2023-03-08T18:07:34.149Z,98200.06
2023-03-08T18:10:04.007Z,98205.91
2023-03-08T18:12:32.059Z,98202.31
2023-03-08T18:15:01.280Z,98206.13
2023-03-08T18:17:30.843Z,98210.09
2023-03-08T18:19:58.886Z,98214.63
2023-03-08T18:22:27.313Z,98224.97
2023-03-08T18:24:55.539Z,98234.44
2023-03-08T18:27:23.590Z,98243.19
2023-03-08T18:29:51.874Z,98239.69
2023-03-08T18:32:20.665Z,98245.69
2023-03-08T18:34:50.076Z,98239.44
2023-03-08T18:37:18.318Z,98233.19
2023-03-08T18:39:46.532Z,98244.00
2023-03-08T18:42:15.167Z,98244.59
2023-03-08T18:44:43.050Z,98241.69
2023-03-08T18:47:11.071Z,98232.56
2023-03-08T18:49:41.498Z,98236.50
2023-03-08T18:52:12.470Z,98235.78
2023-03-08T18:54:41.324Z,98237.94
2023-03-08T18:57:09.308Z,98238.41
2023-03-08T18:59:38.038Z,98234.19
2023-03-08T19:02:07.473Z,98239.59
2023-03-08T19:04:38.773Z,98242.81
2023-03-08T19:07:07.135Z,98244.84
2023-03-08T19:09:36.579Z,98239.78
2023-03-08T19:12:05.500Z,98235.00
2023-03-08T19:14:36.073Z,98243.88
2023-03-08T19:17:04.575Z,98254.06
2023-03-08T19:19:32.767Z,98254.19
2023-03-08T19:22:03.301Z,98245.78
2023-03-08T19:24:32.016Z,98256.81
2023-03-08T19:27:03.162Z,98249.13
2023-03-08T19:29:33.709Z,98246.63
2023-03-08T19:32:02.421Z,98246.03
2023-03-08T19:34:32.913Z,98254.19
2023-03-08T19:37:01.428Z,98250.09
2023-03-08T19:39:30.612Z,98262.75
2023-03-08T19:42:00.425Z,98247.22
2023-03-08T19:44:30.271Z,98249.53
2023-03-08T19:46:59.359Z,98249.44
2023-03-08T19:49:29.493Z,98248.25
2023-03-08T19:51:58.636Z,98246.09
2023-03-08T19:54:27.366Z,98250.16
2023-03-08T19:56:57.692Z,98242.47
2023-03-08T19:59:25.827Z,98247.13
2023-03-08T20:01:56.001Z,98244.84
2023-03-08T20:04:24.195Z,98248.94
2023-03-08T20:06:52.812Z,98247.47
2023-03-08T20:09:23.684Z,98251.56
2023-03-08T20:11:53.298Z,98237.50
2023-03-08T20:14:23.350Z,98231.41
2023-03-08T20:16:51.996Z,98225.75
2023-03-08T20:19:22.531Z,98228.22
2023-03-08T20:21:50.749Z,98230.41
2023-03-08T20:24:22.121Z,98238.69
2023-03-08T20:26:50.230Z,98228.50
2023-03-08T20:29:18.620Z,98236.16
2023-03-08T20:31:49.082Z,98227.78
2023-03-08T20:34:18.753Z,98225.59
2023-03-08T20:37:06.571Z,98223.41
2023-03-08T20:39:35.891Z,98233.16
2023-03-08T20:42:04.387Z,98240.25
2023-03-08T20:44:32.635Z,98231.41
2023-03-08T20:47:01.711Z,98246.34
2023-03-08T20:49:30.013Z,98241.97
2023-03-08T20:51:58.210Z,98238.28
2023-03-08T20:54:27.802Z,98240.91
2023-03-08T20:56:55.902Z,98247.75
2023-03-08T20:59:26.762Z,98244.84
2023-03-08T21:01:55.364Z,98249.66
2023-03-08T21:04:23.386Z,98248.34
2023-03-08T21:06:51.843Z,98260.94
2023-03-08T21:09:20.301Z,98258.94
2023-03-08T21:11:50.106Z,98262.25
2023-03-08T21:14:18.208Z,98245.00
2023-03-08T21:16:46.390Z,98245.00
2023-03-08T21:19:17.211Z,98240.31
2023-03-08T21:21:46.959Z,98250.16
2023-03-08T21:24:16.757Z,98239.72
2023-03-08T21:26:45.238Z,98228.66
2023-03-08T21:29:16.539Z,98234.81
2023-03-08T21:31:45.553Z,98234.31
2023-03-08T21:34:14.310Z,98220.38
2023-03-08T21:36:42.378Z,98212.72
2023-03-08T21:39:12.013Z,98217.53
2023-03-08T21:41:40.935Z,98224.34
2023-03-08T21:44:10.494Z,98218.69
2023-03-08T21:46:42.527Z,98222.78
2023-03-08T21:49:16.238Z,98221.44
2023-03-08T21:51:44.314Z,98222.06
2023-03-08T21:54:13.999Z,98223.34
2023-03-08T21:56:42.538Z,98213.78
2023-03-08T21:59:10.682Z,98214.50
2023-03-08T22:01:45.566Z,98203.44
2023-03-08T22:04:13.746Z,98188.31
2023-03-08T22:06:43.136Z,98185.69
2023-03-08T22:09:11.675Z,98191.09
2023-03-08T22:11:40.188Z,98199.38
2023-03-08T22:14:11.331Z,98191.34
2023-03-08T22:16:41.070Z,98183.34
2023-03-08T22:19:12.298Z,98186.47
2023-03-08T22:21:45.539Z,98180.09
2023-03-08T22:24:13.674Z,98172.53
2023-03-08T22:26:53.313Z,98178.25
2023-03-08T22:29:23.662Z,98166.84
2023-03-08T22:31:53.108Z,98165.28
2023-03-08T22:34:46.608Z,98160.25
2023-03-08T22:37:14.655Z,98155.44
2023-03-08T22:39:44.305Z,98148.75
2023-03-08T22:42:12.315Z,98146.00
2023-03-08T22:44:40.853Z,98141.31
2023-03-08T22:47:10.919Z,98139.75
2023-03-08T22:49:39.364Z,98142.28
2023-03-08T22:52:09.460Z,98127.72
2023-03-08T22:54:37.751Z,98124.50
2023-03-08T22:57:05.775Z,98130.88
2023-03-08T22:59:34.848Z,98122.72
2023-03-08T23:02:04.436Z,98118.38
2023-03-08T23:04:33.949Z,98120.09
2023-03-08T23:07:03.397Z,98099.91
2023-03-08T23:09:32.074Z,98093.03
2023-03-08T23:12:03.650Z,98096.41
2023-03-08T23:14:31.677Z,98086.09
2023-03-08T23:17:03.327Z,98090.03
2023-03-08T23:19:32.134Z,98086.31
2023-03-08T23:22:04.633Z,98071.19
2023-03-08T23:24:32.691Z,98070.72
2023-03-08T23:27:02.223Z,98062.41
2023-03-08T23:29:30.684Z,98060.03
2023-03-08T23:31:58.657Z,98050.16
2023-03-08T23:34:26.718Z,98046.31
2023-03-08T23:36:54.675Z,98045.72
2023-03-08T23:39:24.502Z,98043.78
2023-03-08T23:41:52.846Z,98045.00
2023-03-08T23:44:21.170Z,98038.97
2023-03-08T23:46:53.693Z,98059.91
2023-03-08T23:49:21.897Z,98057.50
2023-03-08T23:51:49.848Z,98051.00
2023-03-08T23:54:18.102Z,98048.59
2023-03-08T23:56:47.908Z,98058.19
2023-03-08T23:59:19.069Z,98055.06
